createdAt,value
2018-07-20T00:00:38.091Z,25.68
2018-07-20T00:01:38.915Z,25.68
2018-07-20T00:02:39.685Z,25.67
2018-07-20T00:03:40.466Z,25.66
2018-07-20T00:04:41.248Z,25.65
2018-07-20T00:05:42.026Z,25.64
2018-07-20T00:06:42.842Z,25.63
2018-07-20T00:07:43.609Z,25.62
2018-07-20T00:08:44.389Z,25.62
2018-07-20T00:09:45.157Z,25.61
2018-07-20T00:10:45.941Z,25.60
2018-07-20T00:11:46.739Z,25.59
2018-07-20T00:12:47.514Z,25.57
2018-07-20T00:13:48.289Z,25.56
2018-07-20T00:14:49.066Z,25.54
2018-07-20T00:15:49.848Z,25.52
2018-07-20T00:16:50.717Z,25.50
2018-07-20T00:17:50.431Z,25.47
2018-07-20T00:18:52.219Z,25.45
2018-07-20T00:19:52.986Z,25.42
2018-07-20T00:20:53.767Z,25.39
2018-07-20T00:21:54.561Z,25.37
2018-07-20T00:22:55.344Z,25.36
2018-07-20T00:23:56.112Z,25.34
2018-07-20T00:24:56.894Z,25.32
2018-07-20T00:25:57.667Z,25.30
2018-07-20T00:26:58.468Z,25.29
2018-07-20T00:27:59.245Z,25.27
2018-07-20T00:29:00.024Z,25.25
2018-07-20T00:30:00.796Z,25.23
2018-07-20T00:31:01.575Z,25.21
2018-07-20T00:32:02.375Z,25.20
2018-07-20T00:33:03.160Z,25.18
2018-07-20T00:34:03.931Z,25.16
2018-07-20T00:35:04.721Z,25.14
2018-07-20T00:36:05.487Z,25.13
2018-07-20T00:37:06.295Z,25.11
2018-07-20T00:38:07.066Z,25.09
2018-07-20T00:39:06.847Z,25.07
2018-07-20T00:40:08.621Z,25.05
2018-07-20T00:41:09.398Z,25.03
2018-07-20T00:42:10.202Z,25.02
2018-07-20T00:43:10.976Z,25.00
2018-07-20T00:44:11.752Z,24.98
2018-07-20T00:45:12.528Z,24.96
2018-07-20T00:46:13.397Z,24.96
2018-07-20T00:47:13.124Z,24.96
2018-07-20T00:48:14.898Z,24.97
2018-07-20T00:49:15.674Z,24.97
2018-07-20T00:50:16.449Z,24.97
2018-07-20T00:51:17.224Z,24.97
2018-07-20T00:52:18.034Z,24.97
2018-07-20T00:53:18.808Z,24.97
2018-07-20T00:54:19.586Z,24.96
2018-07-20T00:55:20.360Z,24.96
2018-07-20T00:56:21.135Z,24.95
2018-07-20T00:57:21.940Z,24.95
2018-07-20T00:58:22.721Z,24.94
2018-07-20T00:59:23.492Z,24.93
2018-07-20T01:00:24.273Z,24.92
2018-07-20T01:01:25.046Z,24.91
2018-07-20T01:02:25.846Z,24.90
2018-07-20T01:03:27.064Z,24.88
2018-07-20T01:06:24.212Z,24.59
2018-07-20T01:07:24.989Z,24.59
2018-07-20T01:08:25.788Z,24.59
2018-07-20T01:09:26.567Z,24.59
2018-07-20T01:10:27.339Z,24.59
2018-07-20T01:11:28.111Z,24.59
2018-07-20T01:12:28.887Z,24.59
2018-07-20T01:13:29.688Z,24.59
2018-07-20T01:14:30.463Z,24.58
2018-07-20T01:15:31.239Z,24.58
2018-07-20T01:16:32.010Z,24.57
2018-07-20T01:17:32.790Z,24.56
2018-07-20T01:18:33.621Z,24.55
2018-07-20T01:19:34.386Z,24.54
2018-07-20T01:20:35.165Z,24.54
2018-07-20T01:21:35.939Z,24.53
2018-07-20T01:22:36.719Z,24.52
2018-07-20T01:23:37.517Z,24.52
2018-07-20T01:24:38.296Z,24.50
2018-07-20T01:25:39.067Z,24.49
2018-07-20T01:26:39.848Z,24.48
2018-07-20T01:27:40.635Z,24.47
2018-07-20T01:28:41.431Z,24.47
2018-07-20T01:29:42.205Z,24.46
2018-07-20T01:30:42.998Z,24.45
2018-07-20T01:31:43.760Z,24.45
2018-07-20T01:32:44.538Z,24.44
2018-07-20T01:33:45.334Z,24.43
2018-07-20T01:34:46.114Z,24.43
2018-07-20T01:35:46.885Z,24.42
2018-07-20T01:36:47.665Z,24.41
2018-07-20T01:37:48.438Z,24.40
2018-07-20T01:38:49.240Z,24.39
2018-07-20T01:39:50.017Z,24.38
2018-07-20T01:40:50.795Z,24.37
2018-07-20T01:41:51.568Z,24.35
2018-07-20T01:42:52.342Z,24.35
2018-07-20T01:43:53.152Z,24.34
2018-07-20T01:44:53.927Z,24.34
2018-07-20T01:45:54.709Z,24.34
2018-07-20T01:46:55.479Z,24.34
2018-07-20T01:47:56.257Z,24.34
2018-07-20T01:48:57.066Z,24.34
2018-07-20T01:49:57.840Z,24.33
2018-07-20T01:50:58.615Z,24.32
2018-07-20T01:51:59.392Z,24.32
2018-07-20T01:53:00.164Z,24.30
2018-07-20T01:54:00.971Z,24.29
2018-07-20T01:55:01.747Z,24.28
2018-07-20T01:56:02.519Z,24.26
2018-07-20T01:57:03.299Z,24.25
2018-07-20T01:58:04.074Z,24.24
2018-07-20T01:59:04.880Z,24.24
2018-07-20T02:00:05.657Z,24.23
2018-07-20T02:01:06.441Z,24.22
2018-07-20T02:02:07.237Z,24.21
2018-07-20T02:03:07.993Z,24.20
2018-07-20T02:04:08.797Z,24.18
2018-07-20T02:05:09.571Z,24.17
2018-07-20T02:06:10.357Z,24.16
2018-07-20T02:07:11.132Z,24.15
2018-07-20T02:08:11.908Z,24.15
2018-07-20T02:09:12.715Z,24.14
2018-07-20T02:10:13.496Z,24.14
2018-07-20T02:11:14.269Z,24.13
2018-07-20T02:12:15.042Z,24.13
2018-07-20T02:13:15.813Z,24.13
2018-07-20T02:14:16.620Z,24.13
2018-07-20T02:15:17.395Z,24.12
2018-07-20T02:16:18.171Z,24.12
2018-07-20T02:17:18.945Z,24.11
2018-07-20T02:18:19.719Z,24.10
2018-07-20T02:19:20.525Z,24.08
2018-07-20T02:20:21.307Z,24.07
2018-07-20T02:21:22.084Z,24.06
2018-07-20T02:22:22.867Z,24.05
2018-07-20T02:23:23.639Z,24.04
2018-07-20T02:24:24.449Z,24.01
2018-07-20T02:25:25.220Z,23.99
2018-07-20T02:26:26.002Z,23.98
2018-07-20T02:27:26.775Z,23.96
2018-07-20T02:28:27.560Z,23.94
2018-07-20T02:29:28.378Z,23.93
2018-07-20T02:30:29.146Z,23.91
2018-07-20T02:31:29.933Z,23.89
2018-07-20T02:32:30.704Z,23.87
2018-07-20T02:33:31.474Z,23.85
2018-07-20T02:34:32.301Z,23.83
2018-07-20T02:35:33.064Z,23.81
2018-07-20T02:36:33.855Z,23.80
2018-07-20T02:37:34.614Z,23.78
2018-07-20T02:38:35.398Z,23.76
2018-07-20T02:39:36.202Z,23.75
2018-07-20T02:40:36.969Z,23.74
2018-07-20T02:41:37.747Z,23.72
2018-07-20T02:42:38.520Z,23.71
2018-07-20T02:43:39.298Z,23.69
2018-07-20T02:44:40.099Z,23.67
2018-07-20T02:45:40.877Z,23.66
2018-07-20T02:46:41.682Z,23.65
2018-07-20T02:47:42.440Z,23.64
2018-07-20T02:48:43.222Z,23.64
2018-07-20T02:49:44.018Z,23.63
2018-07-20T02:50:44.798Z,23.63
2018-07-20T02:51:45.572Z,23.63
2018-07-20T02:52:46.362Z,23.63
2018-07-20T02:53:47.587Z,23.63
2018-07-20T03:04:44.184Z,23.35
2018-07-20T03:05:44.987Z,23.35
2018-07-20T03:06:45.769Z,23.34
2018-07-20T03:07:46.541Z,23.35
2018-07-20T03:08:47.323Z,23.35
2018-07-20T03:09:48.091Z,23.34
2018-07-20T03:10:48.894Z,23.34
2018-07-20T03:11:49.671Z,23.33
2018-07-20T03:12:50.453Z,23.33
2018-07-20T03:13:51.222Z,23.33
2018-07-20T03:14:52.003Z,23.32
2018-07-20T03:15:52.808Z,23.31
2018-07-20T03:16:53.582Z,23.31
2018-07-20T03:17:54.359Z,23.30
2018-07-20T03:18:55.133Z,23.30
2018-07-20T03:19:55.908Z,23.29
2018-07-20T03:20:56.739Z,23.29
2018-07-20T03:21:56.487Z,23.29
2018-07-20T03:22:58.264Z,23.29
2018-07-20T03:23:59.040Z,23.28
2018-07-20T03:24:59.816Z,23.28
2018-07-20T03:26:00.618Z,23.28
2018-07-20T03:27:01.396Z,23.27
2018-07-20T03:28:02.178Z,23.27
2018-07-20T03:29:02.956Z,23.26
2018-07-20T03:30:03.732Z,23.25
2018-07-20T03:31:04.536Z,23.25
2018-07-20T03:32:05.321Z,23.24
2018-07-20T03:33:06.094Z,23.23
2018-07-20T03:34:06.887Z,23.23
2018-07-20T03:35:07.650Z,23.22
2018-07-20T03:36:08.462Z,23.21
2018-07-20T03:37:09.231Z,23.20
2018-07-20T03:38:10.008Z,23.20
2018-07-20T03:39:10.781Z,23.19
2018-07-20T03:40:11.559Z,23.19
2018-07-20T03:41:12.363Z,23.19
2018-07-20T03:42:13.139Z,23.19
2018-07-20T03:43:13.914Z,23.18
2018-07-20T03:44:14.692Z,23.18
2018-07-20T03:45:15.471Z,23.17
2018-07-20T03:46:15.274Z,23.16
2018-07-20T03:47:17.050Z,23.16
2018-07-20T03:48:17.835Z,23.14
2018-07-20T03:49:18.599Z,23.13
2018-07-20T03:50:19.392Z,23.12
2018-07-20T03:51:20.178Z,23.10
2018-07-20T03:52:20.967Z,23.09
2018-07-20T03:53:21.730Z,23.08
2018-07-20T03:54:22.509Z,23.07
2018-07-20T03:55:23.282Z,23.06
2018-07-20T03:56:24.090Z,23.06
2018-07-20T03:57:24.866Z,23.05
2018-07-20T03:58:25.639Z,23.04
2018-07-20T03:59:26.418Z,23.03
2018-07-20T04:00:27.190Z,23.03
2018-07-20T04:01:26.996Z,23.02
2018-07-20T04:02:28.811Z,23.02
2018-07-20T04:03:28.560Z,23.01
2018-07-20T04:04:30.334Z,23.01
2018-07-20T04:05:31.111Z,23.01
2018-07-20T04:06:31.913Z,23.01
2018-07-20T04:07:32.689Z,23.00
2018-07-20T04:08:33.467Z,23.00
2018-07-20T04:09:34.250Z,23.00
2018-07-20T04:10:35.024Z,23.00
2018-07-20T04:11:35.837Z,23.00
2018-07-20T04:12:36.606Z,22.99
2018-07-20T04:13:37.387Z,22.99
2018-07-20T04:14:38.163Z,22.99
2018-07-20T04:15:38.939Z,22.98
2018-07-20T04:16:39.744Z,22.98
2018-07-20T04:17:40.521Z,22.97
2018-07-20T04:18:41.300Z,22.97
2018-07-20T04:19:42.076Z,22.97
2018-07-20T04:20:42.853Z,22.97
2018-07-20T04:21:43.668Z,22.97
2018-07-20T04:22:44.433Z,22.97
2018-07-20T04:23:45.217Z,22.96
2018-07-20T04:24:45.988Z,22.96
2018-07-20T04:25:46.763Z,22.96
2018-07-20T04:26:47.568Z,22.96
2018-07-20T04:27:48.343Z,22.96
2018-07-20T04:28:49.140Z,22.96
2018-07-20T04:29:49.903Z,22.96
2018-07-20T04:30:50.695Z,22.96
2018-07-20T04:31:51.493Z,22.97
2018-07-20T04:32:52.267Z,22.97
2018-07-20T04:33:53.047Z,22.98
2018-07-20T04:34:53.824Z,22.98
2018-07-20T04:35:54.620Z,22.98
2018-07-20T04:36:55.413Z,22.97
2018-07-20T04:37:56.192Z,22.97
2018-07-20T04:38:56.962Z,22.97
2018-07-20T04:39:57.745Z,22.97
2018-07-20T04:40:58.517Z,22.97
2018-07-20T04:41:59.325Z,22.97
2018-07-20T04:43:00.100Z,22.97
2018-07-20T04:44:00.883Z,22.97
2018-07-20T04:45:01.656Z,22.98
2018-07-20T04:46:02.436Z,22.99
2018-07-20T04:47:03.236Z,22.99
2018-07-20T04:48:04.017Z,23.00
2018-07-20T04:49:04.790Z,23.02
2018-07-20T04:50:05.568Z,23.03
2018-07-20T04:51:06.344Z,23.03
2018-07-20T04:52:07.152Z,23.03
2018-07-20T04:53:06.926Z,23.03
2018-07-20T04:54:08.701Z,23.03
2018-07-20T04:55:09.497Z,23.02
2018-07-20T04:56:10.711Z,23.02
2018-07-20T05:10:36.937Z,23.18
2018-07-20T05:11:37.707Z,23.18
2018-07-20T05:12:38.489Z,23.18
2018-07-20T05:13:39.283Z,23.18
2018-07-20T05:14:40.066Z,23.19
2018-07-20T05:15:40.833Z,23.19
2018-07-20T05:16:41.614Z,23.18
2018-07-20T05:17:42.383Z,23.19
2018-07-20T05:18:43.187Z,23.18
2018-07-20T05:19:43.963Z,23.18
2018-07-20T05:20:44.735Z,23.17
2018-07-20T05:21:45.514Z,23.17
2018-07-20T05:22:46.285Z,23.16
2018-07-20T05:23:47.090Z,23.16
2018-07-20T05:24:46.866Z,23.16
2018-07-20T05:25:48.640Z,23.16
2018-07-20T05:26:49.415Z,23.16
2018-07-20T05:27:50.189Z,23.16
2018-07-20T05:28:50.994Z,23.17
2018-07-20T05:29:51.778Z,23.17
2018-07-20T05:30:52.552Z,23.17
2018-07-20T05:31:53.326Z,23.17
2018-07-20T05:32:54.104Z,23.16
2018-07-20T05:33:53.908Z,23.16
2018-07-20T05:34:55.683Z,23.16
2018-07-20T05:35:56.464Z,23.16
2018-07-20T05:36:57.239Z,23.16
2018-07-20T05:37:58.015Z,23.16
2018-07-20T05:38:57.822Z,23.17
2018-07-20T05:39:59.600Z,23.17
2018-07-20T05:41:00.397Z,23.18
2018-07-20T05:42:01.166Z,23.18
2018-07-20T05:43:01.943Z,23.19
2018-07-20T05:44:02.764Z,23.20
2018-07-20T05:45:02.523Z,23.20
2018-07-20T05:46:04.305Z,23.21
2018-07-20T05:47:05.081Z,23.21
2018-07-20T05:48:05.856Z,23.21
2018-07-20T05:49:06.662Z,23.22
2018-07-20T05:50:07.448Z,23.22
2018-07-20T05:51:08.213Z,23.22
2018-07-20T05:52:08.998Z,23.23
2018-07-20T05:53:09.768Z,23.23
2018-07-20T05:54:10.576Z,23.23
2018-07-20T05:55:11.348Z,23.24
2018-07-20T05:56:12.124Z,23.26
2018-07-20T05:57:12.900Z,23.27
2018-07-20T05:58:13.675Z,23.27
2018-07-20T05:59:14.483Z,23.28
2018-07-20T06:00:15.276Z,23.29
2018-07-20T06:01:16.045Z,23.30
2018-07-20T06:02:16.819Z,23.31
2018-07-20T06:03:17.599Z,23.33
2018-07-20T06:04:18.402Z,23.34
2018-07-20T06:05:19.184Z,23.35
2018-07-20T06:06:19.957Z,23.37
2018-07-20T06:07:20.743Z,23.39
2018-07-20T06:08:21.516Z,23.41
2018-07-20T06:09:22.321Z,23.42
2018-07-20T06:10:23.094Z,23.43
2018-07-20T06:11:23.874Z,23.45
2018-07-20T06:12:24.671Z,23.46
2018-07-20T06:13:25.440Z,23.47
2018-07-20T06:14:26.247Z,23.48
2018-07-20T06:15:27.021Z,23.49
2018-07-20T06:16:27.803Z,23.50
2018-07-20T06:17:28.574Z,23.51
2018-07-20T06:18:29.358Z,23.52
2018-07-20T06:19:30.164Z,23.53
2018-07-20T06:20:30.941Z,23.55
2018-07-20T06:21:31.727Z,23.56
2018-07-20T06:22:32.502Z,23.57
2018-07-20T06:23:33.379Z,23.58
2018-07-20T06:24:33.078Z,23.60
2018-07-20T06:25:34.856Z,23.60
2018-07-20T06:26:35.630Z,23.62
2018-07-20T06:27:36.408Z,23.63
2018-07-20T06:28:37.184Z,23.64
2018-07-20T06:29:38.060Z,23.65
2018-07-20T06:30:37.768Z,23.66
2018-07-20T06:31:39.540Z,23.69
2018-07-20T06:32:40.314Z,23.71
2018-07-20T06:33:41.098Z,23.73
2018-07-20T06:34:41.900Z,23.76
2018-07-20T06:35:42.676Z,23.78
2018-07-20T06:36:43.451Z,23.80
2018-07-20T06:37:44.235Z,23.82
2018-07-20T06:38:45.013Z,23.84
2018-07-20T06:39:45.815Z,23.86
2018-07-20T06:40:46.635Z,23.89
2018-07-20T06:41:46.363Z,23.92
2018-07-20T06:42:48.137Z,23.95
2018-07-20T06:43:48.914Z,23.98
2018-07-20T06:44:49.720Z,24.01
2018-07-20T06:45:50.499Z,24.04
2018-07-20T06:46:51.271Z,24.08
2018-07-20T06:47:52.049Z,24.11
2018-07-20T06:48:52.831Z,24.14
2018-07-20T06:49:53.638Z,24.17
2018-07-20T06:50:53.411Z,24.21
2018-07-20T06:51:55.186Z,24.25
2018-07-20T06:52:55.963Z,24.28
2018-07-20T06:53:56.738Z,24.32
2018-07-20T06:54:57.541Z,24.35
2018-07-20T06:55:58.382Z,24.38
2018-07-20T06:56:58.101Z,24.42
2018-07-20T06:57:59.876Z,24.45
2018-07-20T06:59:00.654Z,24.49
2018-07-20T07:00:01.460Z,24.53
2018-07-20T07:01:02.235Z,24.56
2018-07-20T07:02:03.013Z,24.60
2018-07-20T07:03:03.800Z,24.64
2018-07-20T07:04:04.588Z,24.68
2018-07-20T07:05:05.812Z,24.72
2018-07-20T07:06:06.076Z,24.76
2018-07-20T07:07:05.339Z,24.80
2018-07-20T07:08:05.602Z,24.84
2018-07-20T07:10:13.382Z,25.60
2018-07-20T07:11:14.160Z,25.60
2018-07-20T07:12:14.938Z,25.60
2018-07-20T07:13:15.712Z,25.61
2018-07-20T07:14:16.487Z,25.61
2018-07-20T07:15:17.398Z,25.63
2018-07-20T07:16:17.067Z,25.63
2018-07-20T07:17:18.843Z,25.65
2018-07-20T07:18:19.624Z,25.66
2018-07-20T07:19:20.392Z,25.67
2018-07-20T07:20:21.194Z,25.69
2018-07-20T07:21:21.974Z,25.70
2018-07-20T07:22:22.753Z,25.72
2018-07-20T07:23:23.528Z,25.74
2018-07-20T07:24:24.303Z,25.76
2018-07-20T07:25:25.104Z,25.78
2018-07-20T07:26:25.891Z,25.80
2018-07-20T07:27:26.668Z,25.82
2018-07-20T07:28:27.442Z,25.84
2018-07-20T07:29:28.217Z,25.87
2018-07-20T07:30:29.027Z,25.89
2018-07-20T07:31:29.798Z,25.92
2018-07-20T07:32:30.577Z,25.94
2018-07-20T07:33:31.349Z,25.97
2018-07-20T07:34:32.126Z,26.00
2018-07-20T07:35:32.925Z,26.02
2018-07-20T07:36:33.700Z,26.05
2018-07-20T07:37:34.477Z,26.07
2018-07-20T07:38:35.252Z,26.10
2018-07-20T07:39:36.029Z,26.12
2018-07-20T07:40:36.855Z,26.15
2018-07-20T07:41:37.620Z,26.17
2018-07-20T07:42:38.474Z,26.19
2018-07-20T07:43:38.237Z,26.22
2018-07-20T07:44:40.001Z,26.24
2018-07-20T07:45:40.807Z,26.27
2018-07-20T07:46:41.583Z,26.29
2018-07-20T07:47:42.361Z,26.31
2018-07-20T07:48:43.157Z,26.34
2018-07-20T07:49:43.919Z,26.36
2018-07-20T07:50:44.722Z,26.39
2018-07-20T07:51:45.503Z,26.41
2018-07-20T07:52:46.282Z,26.44
2018-07-20T07:53:47.065Z,26.46
2018-07-20T07:54:47.867Z,26.49
2018-07-20T07:55:47.639Z,26.51
2018-07-20T07:56:49.418Z,26.54
2018-07-20T07:57:50.194Z,26.57
2018-07-20T07:58:50.980Z,26.59
2018-07-20T07:59:51.765Z,26.63
2018-07-20T08:00:52.559Z,26.66
2018-07-20T08:01:53.335Z,26.70
2018-07-20T08:02:57.120Z,26.74
2018-07-20T13:41:29.201Z,28.67
2018-07-20T13:42:29.989Z,28.66
2018-07-20T13:43:29.749Z,28.66
2018-07-20T13:44:31.526Z,28.68
2018-07-20T13:45:32.299Z,28.69
2018-07-20T13:46:33.108Z,28.72
2018-07-20T13:47:33.884Z,28.75
2018-07-20T13:48:34.661Z,28.79
2018-07-20T13:49:35.454Z,28.83
2018-07-20T13:50:18.260Z,22.12
2018-07-20T13:51:05.535Z,29.83
2018-07-20T13:58:53.536Z,31.08
2018-07-20T13:59:54.315Z,31.08
2018-07-20T14:00:55.089Z,31.09
2018-07-20T14:01:55.888Z,31.12
2018-07-20T14:02:56.670Z,31.15
2018-07-20T14:03:57.446Z,31.18
2018-07-20T14:04:58.223Z,31.22
2018-07-20T14:05:59.012Z,31.28
2018-07-20T14:06:59.808Z,31.34
2018-07-20T14:08:00.591Z,31.40
2018-07-20T14:09:01.370Z,31.47
2018-07-20T14:10:02.148Z,31.54
2018-07-20T14:11:02.928Z,31.62
2018-07-20T14:12:03.742Z,31.69
2018-07-20T14:13:04.504Z,31.76
2018-07-20T14:14:05.284Z,31.82
2018-07-20T14:15:05.058Z,31.89
2018-07-20T14:16:06.837Z,31.94
2018-07-20T14:17:07.703Z,31.99
2018-07-20T14:18:08.608Z,32.03
2018-07-20T14:19:08.263Z,32.06
2018-07-20T14:20:10.041Z,32.09
2018-07-20T14:21:10.824Z,32.12
2018-07-20T14:22:11.632Z,32.14
2018-07-20T14:23:12.413Z,32.14
2018-07-20T14:24:13.181Z,32.15
2018-07-20T14:25:13.962Z,32.15
2018-07-20T14:26:14.788Z,32.14
2018-07-20T14:27:14.554Z,32.13
2018-07-20T14:28:16.326Z,32.11
2018-07-20T14:29:17.106Z,32.09
2018-07-20T14:30:17.878Z,32.07
2018-07-20T14:31:18.694Z,32.06
2018-07-20T14:32:18.462Z,32.04
2018-07-20T14:33:20.244Z,32.02
2018-07-20T14:34:21.015Z,32.00
2018-07-20T14:35:21.790Z,31.98
2018-07-20T14:36:22.585Z,31.97
2018-07-20T14:37:22.376Z,31.95
2018-07-20T14:38:24.151Z,31.93
2018-07-20T14:39:24.926Z,31.91
2018-07-20T14:40:25.703Z,31.89
2018-07-20T14:41:26.480Z,31.87
2018-07-20T14:42:27.292Z,31.86
2018-07-20T14:43:28.063Z,31.84
2018-07-20T14:44:28.841Z,31.83
2018-07-20T14:45:29.615Z,31.82
2018-07-20T14:46:29.394Z,31.80
2018-07-20T14:47:31.194Z,31.79
2018-07-20T14:48:31.971Z,31.77
2018-07-20T14:49:32.756Z,31.76
2018-07-20T14:50:33.530Z,31.75
2018-07-20T14:51:34.320Z,31.75
2018-07-20T14:52:35.116Z,31.75
2018-07-20T14:53:35.891Z,31.75
2018-07-20T14:54:36.670Z,31.76
2018-07-20T14:55:37.455Z,31.76
2018-07-20T14:56:38.251Z,31.76
2018-07-20T14:57:39.041Z,31.76
2018-07-20T14:58:39.828Z,31.77
2018-07-20T14:59:40.609Z,31.77
2018-07-20T15:00:41.383Z,31.78
2018-07-20T15:01:42.205Z,31.78
2018-07-20T15:02:41.970Z,31.78
2018-07-20T15:03:43.744Z,31.78
2018-07-20T15:04:44.524Z,31.78
2018-07-20T15:05:45.299Z,31.77
2018-07-20T15:06:46.108Z,31.77
2018-07-20T15:07:46.892Z,31.77
2018-07-20T15:08:47.672Z,31.77
2018-07-20T15:09:48.445Z,31.78
2018-07-20T15:10:49.224Z,31.78
2018-07-20T15:11:50.181Z,31.79
2018-07-20T15:12:49.915Z,31.80
2018-07-20T15:13:51.705Z,31.81
2018-07-20T15:14:52.467Z,31.82
2018-07-20T15:15:53.248Z,31.84
2018-07-20T15:16:54.023Z,31.86
2018-07-20T15:17:54.858Z,31.88
2018-07-20T15:18:54.651Z,31.91
2018-07-20T15:19:55.400Z,31.93
2018-07-20T15:20:57.178Z,31.95
2018-07-20T15:21:57.947Z,31.96
2018-07-20T15:22:58.749Z,31.97
2018-07-20T15:23:59.530Z,31.99
2018-07-20T15:25:01.302Z,32.00
2018-07-20T15:26:01.163Z,32.02
2018-07-20T15:27:00.864Z,32.04
2018-07-20T15:28:02.681Z,32.06
2018-07-20T15:29:03.458Z,32.08
2018-07-20T15:30:04.235Z,32.09
2018-07-20T15:31:05.013Z,32.10
2018-07-20T15:32:05.790Z,32.10
2018-07-20T15:33:06.596Z,32.11
2018-07-20T15:34:07.376Z,32.12
2018-07-20T15:35:08.149Z,32.12
2018-07-20T15:36:08.926Z,32.13
2018-07-20T15:37:09.701Z,32.13
2018-07-20T15:38:10.541Z,32.12
2018-07-20T15:39:10.297Z,32.12
2018-07-20T15:40:12.075Z,32.11
2018-07-20T15:41:12.855Z,32.10
2018-07-20T15:42:13.627Z,32.10
2018-07-20T15:43:14.437Z,32.09
2018-07-20T15:44:15.226Z,32.08
2018-07-20T15:45:16.003Z,32.07
2018-07-20T15:46:16.830Z,32.06
2018-07-20T15:47:16.578Z,32.04
2018-07-20T15:48:17.367Z,32.03
2018-07-20T15:49:19.140Z,32.01
2018-07-20T15:50:19.917Z,31.99
2018-07-20T15:51:31.576Z,31.96
2018-07-20T15:53:37.360Z,31.90
2018-07-20T15:54:22.116Z,31.86
2018-07-20T15:55:22.845Z,31.83
2018-07-20T15:56:24.706Z,31.80
2018-07-20T15:57:24.411Z,31.76
2018-07-20T15:58:26.214Z,31.73
2018-07-20T15:59:26.994Z,31.68
2018-07-20T16:00:27.772Z,31.63
2018-07-20T16:01:28.555Z,31.58
2018-07-20T16:02:30.778Z,31.53
2018-07-20T16:03:30.335Z,31.48
2018-07-20T16:14:04.120Z,30.03
2018-07-20T16:15:04.895Z,30.01
2018-07-20T16:16:05.672Z,30.00
2018-07-20T16:17:06.491Z,29.99
2018-07-20T16:18:06.225Z,29.98
2018-07-20T16:19:08.028Z,29.95
2018-07-20T16:20:08.822Z,29.93
2018-07-20T16:21:09.589Z,29.90
2018-07-20T16:22:10.451Z,29.87
2018-07-20T16:23:10.176Z,29.83
2018-07-20T16:24:11.970Z,29.79
2018-07-20T16:25:12.749Z,29.74
2018-07-20T16:26:13.624Z,29.69
2018-07-20T16:27:13.299Z,29.65
2018-07-20T16:28:15.074Z,29.60
2018-07-20T16:29:15.880Z,29.56
2018-07-20T16:30:16.661Z,29.51
2018-07-20T16:31:17.435Z,29.47
2018-07-20T16:32:18.225Z,29.43
2018-07-20T16:33:18.992Z,29.40
2018-07-20T16:34:19.799Z,29.37
2018-07-20T16:35:20.573Z,29.34
2018-07-20T16:36:21.350Z,29.32
2018-07-20T16:37:22.127Z,29.29
2018-07-20T16:38:22.902Z,29.27
2018-07-20T16:39:23.707Z,29.24
2018-07-20T16:40:24.490Z,29.22
2018-07-20T16:41:25.269Z,29.21
2018-07-20T16:42:26.045Z,29.20
2018-07-20T16:43:26.844Z,29.18
2018-07-20T16:44:27.624Z,29.17
2018-07-20T16:45:28.394Z,29.16
2018-07-20T16:46:29.174Z,29.14
2018-07-20T16:47:29.946Z,29.13
2018-07-20T16:48:30.726Z,29.12
2018-07-20T16:49:31.527Z,29.10
2018-07-20T16:50:32.301Z,29.08
2018-07-20T16:51:33.076Z,29.07
2018-07-20T16:52:33.852Z,29.05
2018-07-20T16:53:34.630Z,29.03
2018-07-20T16:54:35.437Z,29.01
2018-07-20T16:55:37.215Z,28.99
2018-07-20T16:56:36.988Z,28.97
2018-07-20T16:57:37.767Z,28.96
2018-07-20T16:58:38.544Z,28.94
2018-07-20T16:59:39.350Z,28.92
2018-07-20T17:00:40.127Z,28.90
2018-07-20T17:01:40.900Z,28.88
2018-07-20T17:02:41.680Z,28.86
2018-07-20T17:03:42.453Z,28.84
2018-07-20T17:04:43.260Z,28.82
2018-07-20T17:05:44.043Z,28.80
2018-07-20T17:06:44.819Z,28.77
2018-07-20T17:07:45.602Z,28.75
2018-07-20T17:08:46.372Z,28.73
2018-07-20T17:09:47.178Z,28.70
2018-07-20T17:10:47.953Z,28.67
2018-07-20T17:11:48.733Z,28.64
2018-07-20T17:12:49.516Z,28.61
2018-07-20T17:13:50.294Z,28.58
2018-07-20T17:14:51.096Z,28.54
2018-07-20T17:15:51.886Z,28.52
2018-07-20T17:16:52.657Z,28.50
2018-07-20T17:17:53.435Z,28.48
2018-07-20T17:18:54.213Z,28.45
2018-07-20T17:19:55.032Z,28.43
2018-07-20T17:20:55.801Z,28.40
2018-07-20T17:21:56.583Z,28.38
2018-07-20T17:22:57.357Z,28.36
2018-07-20T17:23:58.134Z,28.33
2018-07-20T17:24:58.942Z,28.31
2018-07-20T17:25:59.717Z,28.29
2018-07-20T17:27:00.494Z,28.27
2018-07-20T17:28:01.298Z,28.25
2018-07-20T17:29:01.053Z,28.23
2018-07-20T17:30:02.888Z,28.20
2018-07-20T17:31:03.657Z,28.18
2018-07-20T17:32:04.436Z,28.16
2018-07-20T17:33:05.223Z,28.14
2018-07-20T17:34:06.005Z,28.13
2018-07-20T17:35:06.822Z,28.11
2018-07-20T17:36:07.597Z,28.10
2018-07-20T17:37:08.372Z,28.09
2018-07-20T17:38:09.148Z,28.08
2018-07-20T17:39:09.926Z,28.07
2018-07-20T17:40:10.739Z,28.07
2018-07-20T17:41:11.508Z,28.06
2018-07-20T17:42:12.290Z,28.05
2018-07-20T17:43:13.085Z,28.05
2018-07-20T17:44:13.860Z,28.04
2018-07-20T17:45:14.738Z,28.04
2018-07-20T17:46:14.444Z,28.04
2018-07-20T17:47:16.220Z,28.04
2018-07-20T17:48:17.020Z,28.05
2018-07-20T17:49:17.783Z,28.05
2018-07-20T17:50:18.587Z,28.05
2018-07-20T17:51:18.398Z,28.05
2018-07-20T17:52:20.199Z,28.05
2018-07-20T17:53:20.975Z,28.05
2018-07-20T17:54:21.734Z,28.05
2018-07-20T17:55:23.541Z,28.05
2018-07-20T17:56:23.379Z,28.05
2018-07-20T17:57:23.093Z,28.05
2018-07-20T17:58:24.871Z,28.05
2018-07-20T17:59:25.648Z,28.05
2018-07-20T18:00:26.457Z,28.05
2018-07-20T18:01:27.238Z,28.05
2018-07-20T18:02:28.146Z,28.05
2018-07-20T18:03:28.073Z,28.05
2018-07-20T18:04:29.003Z,28.05
2018-07-20T18:05:29.754Z,28.05
2018-07-20T18:06:31.518Z,28.04
2018-07-20T18:07:32.297Z,28.04
2018-07-20T18:08:33.074Z,28.03
2018-07-20T18:09:34.281Z,28.03
2018-07-20T18:10:34.608Z,28.02
2018-07-20T18:11:33.874Z,28.01
2018-07-20T18:12:45.133Z,27.86
2018-07-20T18:13:45.913Z,27.83
2018-07-20T18:14:46.685Z,27.83
2018-07-20T18:15:47.581Z,27.82
2018-07-20T18:16:47.274Z,27.81
2018-07-20T18:17:49.069Z,27.80
2018-07-20T18:18:48.824Z,27.80
2018-07-20T18:19:50.687Z,27.79
2018-07-20T18:20:50.416Z,27.78
2018-07-20T18:21:52.198Z,27.76
2018-07-20T18:22:52.972Z,27.74
2018-07-20T18:23:53.749Z,27.72
2018-07-20T18:24:54.534Z,27.70
2018-07-20T18:25:55.334Z,27.68
2018-07-20T18:26:56.154Z,27.64
2018-07-20T18:27:55.888Z,27.61
2018-07-20T18:28:57.662Z,27.58
2018-07-20T18:29:58.441Z,27.54
2018-07-20T18:30:59.246Z,27.51
2018-07-20T18:31:59.026Z,27.47
2018-07-20T18:33:00.803Z,27.44
2018-07-20T18:34:01.737Z,27.40
2018-07-20T18:35:01.364Z,27.37
2018-07-20T18:36:03.164Z,27.33
2018-07-20T18:37:03.940Z,27.29
2018-07-20T18:38:04.724Z,27.26
2018-07-20T18:39:05.501Z,27.22
2018-07-20T18:40:06.275Z,27.18
2018-07-20T18:41:07.081Z,27.15
2018-07-20T18:42:06.891Z,27.11
2018-07-20T18:43:07.633Z,27.07
2018-07-20T18:44:09.411Z,27.04
2018-07-20T18:45:10.188Z,27.00
2018-07-20T18:46:11.992Z,26.96
2018-07-20T18:47:11.789Z,26.92
2018-07-20T18:48:12.556Z,26.88
2018-07-20T18:49:13.337Z,26.84
2018-07-20T18:50:14.109Z,26.80
2018-07-20T18:51:14.914Z,26.76
2018-07-20T18:52:15.691Z,26.72
2018-07-20T18:53:16.474Z,26.68
2018-07-20T18:54:17.262Z,26.64
2018-07-20T18:55:18.029Z,26.61
2018-07-20T18:56:18.848Z,26.57
2018-07-20T18:57:19.610Z,26.53
2018-07-20T18:58:20.388Z,26.49
2018-07-20T18:59:21.165Z,26.44
2018-07-20T19:00:21.941Z,26.40
2018-07-20T19:01:22.858Z,26.36
2018-07-20T19:02:22.566Z,26.31
2018-07-20T19:03:24.340Z,26.27
2018-07-20T19:04:25.116Z,26.21
2018-07-20T19:05:25.906Z,26.17
2018-07-20T19:06:25.703Z,26.12
2018-07-20T19:07:27.480Z,26.07
2018-07-20T19:08:28.258Z,26.01
2018-07-20T19:09:29.041Z,25.96
2018-07-20T19:10:29.811Z,25.92
2018-07-20T19:11:30.618Z,25.87
2018-07-20T19:12:31.389Z,25.83
2018-07-20T19:13:32.168Z,25.79
2018-07-20T19:14:32.944Z,25.75
2018-07-20T19:15:33.724Z,25.71
2018-07-20T19:16:34.535Z,25.67
2018-07-20T19:17:35.310Z,25.63
2018-07-20T19:18:36.101Z,25.59
2018-07-20T19:19:36.863Z,25.55
2018-07-20T19:20:37.646Z,25.51
2018-07-20T19:21:38.445Z,25.47
2018-07-20T19:22:39.232Z,25.42
2018-07-20T19:23:40.105Z,25.38